KMRC/MRC METAR and TAF weather

Enter ICAO airport designator
Station Type Date Time Source
KMRC METAR 2020/06/05 09:15 UTC NOAA

KMRC 050915Z AUTO 24004KT 7SM CLR 22/22 A2988 RMK A01


Station Type Date Time Source
KMRC Decoded METAR 2020/06/05 09:15 UTC NOAA

Columbia / Maury County, TN, United States (KMRC) 35-33N 087-11W
Jun 05, 2020 - 05:15 AM EDT / 2020.06.05 0915 UTC
Wind: from the WSW (240 degrees) at 5 MPH (4 KT):0
Visibility: 7 mile(s):0
Sky conditions: clear
Temperature: 71 F (22 C)
Dew Point: 71 F (22 C)
Relative Humidity: 100%
Pressure (altimeter): 29.88 in. Hg (1011 hPa)
ob: KMRC 050915Z AUTO 24004KT 7SM CLR 22/22 A2988 RMK A01
cycle: 9

Station Type Date Time Source
KMRC TAF 2009/08/31 19:45 UTC NOAA

METAR KMRC 311945Z AUTO 06008KT 10SM CLR 26/12 A3010
RMK AO1 T02550116 $

Example: see airport list